Gabarus, Canada
Current Conditions -  °F | °C
As of 4:00 AM on Monday 22 Dec 2014 (Local Time) from CYQY Reporting Station
Overcast Overcast  
Wind Chill: 21°   Ceiling: 1800
Heat Index: 28°   Visibility: 15mi
Dew Point: 21°   Wind: 7mph
Humidity: 74%   Direction: 330°NNW
Pressure: 30.4"   Gusts: NA
Location:  45.83°N, 60.13°W
Report Text: CYQY 220800Z 33006KT 15SM OVC018 M02/M06 A3040 RMK SC8 SLP299
Loading
Personal Weather Stations






























Interactive Weather Map New forecast layout! Learn more

10-Day Weather Forecast

Advertisements
Track Severe Weather on mobile